Time;durP1;ratioP1;P1;durP2;ratioP2;P2;SDS_P1;SDS_P2;PMS_P1;PMS_P2;Temp;Humidity;BMP_temperature;BMP_pressure;BME280_temperature;BME280_humidity;BME280_pressure;Samples;Min_cycle;Max_cycle;Signal;HPM_P1;HPM_P2
2021/01/12 00:00:38;;;;;;;30.92;13.13;;;;;;;19.45;37.48;156241.39;1657381;85;21717;-75
2021/01/12 00:03:11;;;;;;;26.93;12.55;;;;;;;19.32;37.38;156207.09;1670737;85;21414;-75
2021/01/12 00:05:43;;;;;;;26.25;12.85;;;;;;;19.02;37.89;156125.11;1655283;85;21338;-72
2021/01/12 00:08:16;;;;;;;30.15;13.43;;;;;;;19.21;37.92;156177.98;1660663;86;21407;-72
2021/01/12 00:10:49;;;;;;;27.90;13.22;;;;;;;19.11;37.91;156151.58;1632962;86;21730;-75
2021/01/12 00:13:22;;;;;;;30.32;13.13;;;;;;;18.82;38.48;156073.61;1654722;86;21353;-75
2021/01/12 00:15:54;;;;;;;26.57;13.10;;;;;;;18.76;38.62;156056.44;1664128;85;21217;-74
2021/01/12 00:18:27;;;;;;;26.05;13.22;;;;;;;19.03;38.42;156130.41;1662293;85;21291;-74
2021/01/12 00:20:59;;;;;;;25.45;13.05;;;;;;;18.94;38.62;156104.00;1628132;86;21350;-75
2021/01/12 00:23:31;;;;;;;24.40;12.55;;;;;;;19.07;38.49;156140.98;1634001;86;21207;-75
2021/01/12 00:26:11;;;;;;;23.50;11.90;;;;;;;19.10;38.50;156148.88;1616611;88;21399;-72
2021/01/12 00:28:44;;;;;;;27.10;11.40;;;;;;;19.05;38.63;156135.70;1658652;85;21695;-72
2021/01/12 00:31:16;;;;;;;27.27;13.03;;;;;;;19.14;38.38;156159.52;1671420;85;21238;-72
2021/01/12 00:33:49;;;;;;;22.37;10.90;;;;;;;19.04;37.95;156131.70;1670475;85;21218;-74
2021/01/12 00:36:21;;;;;;;24.18;11.57;;;;;;;18.72;37.44;156047.20;1662579;86;21202;-73
2021/01/12 00:38:53;;;;;;;19.87;10.55;;;;;;;18.58;37.41;156008.94;1673708;85;21198;-73
2021/01/12 00:41:26;;;;;;;20.65;9.83;;;;;;;18.54;37.56;155998.36;1685331;85;21280;-73
2021/01/12 00:43:58;;;;;;;23.27;11.45;;;;;;;18.45;37.76;155974.61;1665421;85;21729;-74
2021/01/12 00:46:30;;;;;;;22.22;10.53;;;;;;;18.28;38.04;155929.75;1655317;86;21341;-74
2021/01/12 00:49:03;;;;;;;20.20;9.58;;;;;;;18.34;37.77;155945.56;1655488;86;21880;-74
2021/01/12 00:51:37;;;;;;;20.80;10.45;;;;;;;18.34;37.76;155945.56;1656756;86;21242;-74
2021/01/12 00:54:15;;;;;;;22.73;9.95;;;;;;;18.16;38.24;155899.33;1659902;85;21219;-74
2021/01/12 00:56:51;;;;;;;18.37;9.45;;;;;;;18.45;38.02;155975.95;1624489;88;21198;-74
2021/01/12 00:59:24;;;;;;;20.65;10.30;;;;;;;18.76;37.78;156056.44;1662971;85;21250;-74
2021/01/12 01:02:05;;;;;;;17.92;9.98;;;;;;;18.84;37.77;156078.89;1670978;85;21821;-74
2021/01/12 01:04:38;;;;;;;19.73;10.50;;;;;;;18.71;37.94;156044.56;1669612;85;21255;-73
2021/01/12 01:07:10;;;;;;;19.95;10.43;;;;;;;18.95;37.84;156106.64;1656602;86;21206;-73
2021/01/12 01:09:43;;;;;;;21.82;10.53;;;;;;;19.08;37.68;156143.64;1663977;86;21245;-73
2021/01/12 01:12:15;;;;;;;22.15;11.12;;;;;;;19.14;37.62;156158.22;1669831;85;21721;-73
2021/01/12 01:14:47;;;;;;;25.80;11.10;;;;;;;19.16;37.56;156164.80;1634623;86;21402;-72
2021/01/12 01:17:20;;;;;;;20.82;10.75;;;;;;;19.13;37.48;156155.56;1657545;86;21245;-72
2021/01/12 01:19:52;;;;;;;22.10;10.82;;;;;;;19.12;37.55;156152.92;1654273;86;21254;-72
2021/01/12 01:22:25;;;;;;;23.45;10.93;;;;;;;19.34;37.51;156211.03;1645084;87;21218;-72
2021/01/12 01:24:57;;;;;;;22.35;11.30;;;;;;;19.29;37.50;156199.16;1654623;86;21389;-73
2021/01/12 01:27:31;;;;;;;23.40;11.45;;;;;;;19.24;37.71;156185.92;1665794;85;21253;-72
2021/01/12 01:30:04;;;;;;;20.20;10.15;;;;;;;19.25;37.27;156187.27;1677829;85;21278;-72
2021/01/12 01:32:39;;;;;;;22.85;10.53;;;;;;;19.16;37.36;156163.45;1666755;85;21278;-72
2021/01/12 01:35:12;;;;;;;22.67;11.40;;;;;;;19.12;37.53;156152.92;1669912;85;21344;-72
2021/01/12 01:37:46;;;;;;;27.02;11.83;;;;;;;19.14;37.31;156158.22;1658012;85;21350;-72
2021/01/12 01:40:21;;;;;;;23.05;11.15;;;;;;;19.29;37.22;156197.81;1654550;87;21396;-72
2021/01/12 01:42:54;;;;;;;24.20;11.75;;;;;;;19.05;37.43;156134.34;1654436;87;21384;-72
2021/01/12 01:45:26;;;;;;;20.12;11.08;;;;;;;19.04;37.26;156133.05;1654671;86;21214;-73
2021/01/12 01:47:58;;;;;;;23.65;11.25;;;;;;;18.91;36.97;156097.41;1667982;85;21277;-73
2021/01/12 01:50:31;;;;;;;23.60;11.40;;;;;;;18.73;37.01;156048.56;1659033;86;21202;-73
2021/01/12 01:53:03;;;;;;;21.77;10.98;;;;;;;18.50;37.35;155987.83;1669913;85;21372;-73
2021/01/12 01:55:36;;;;;;;23.12;11.97;;;;;;;18.42;37.25;155968.03;1657290;85;21198;-73
2021/01/12 01:58:10;;;;;;;21.65;10.78;;;;;;;18.34;37.39;155946.88;1655715;86;21230;-73
2021/01/12 02:00:43;;;;;;;21.12;10.65;;;;;;;18.25;37.36;155921.83;1661040;85;21198;-72
2021/01/12 02:03:31;;;;;;;22.85;10.55;;;;;;;18.20;37.33;155909.91;1665960;85;21191;-73
2021/01/12 02:06:21;;;;;;;21.75;10.78;;;;;;;18.05;37.44;155869.00;1674745;85;21852;-72
2021/01/12 02:09:19;;;;;;;22.73;9.75;;;;;;;18.06;37.24;155871.59;1656649;85;21345;-72
2021/01/12 02:11:58;;;;;;;18.07;9.35;;;;;;;17.88;36.97;155824.11;1665063;85;21179;-72
2021/01/12 02:14:32;;;;;;;17.00;7.72;;;;;;;17.78;36.86;155796.39;1627280;87;21384;-74
2021/01/12 02:17:05;;;;;;;14.98;8.53;;;;;;;17.70;36.58;155776.66;1626673;87;21333;-74
2021/01/12 02:19:39;;;;;;;17.35;8.13;;;;;;;17.62;36.90;155754.20;1670357;85;21738;-73
2021/01/12 02:22:21;;;;;;;15.70;8.40;;;;;;;17.59;37.10;155746.28;1655260;86;21234;-73
2021/01/12 02:24:53;;;;;;;16.85;9.30;;;;;;;17.64;37.05;155760.80;1654994;85;21873;-74
2021/01/12 02:27:25;;;;;;;17.82;8.75;;;;;;;17.73;36.90;155784.53;1644541;85;21290;-74
2021/01/12 02:29:58;;;;;;;18.75;8.90;;;;;;;17.79;36.95;155800.38;1647238;85;21393;-74
2021/01/12 02:32:30;;;;;;;18.40;8.55;;;;;;;17.85;36.82;155816.19;1654267;85;21211;-74
2021/01/12 02:35:03;;;;;;;15.30;8.20;;;;;;;18.01;36.71;155857.08;1649921;85;21346;-74
2021/01/12 02:37:36;;;;;;;16.32;8.33;;;;;;;18.43;36.22;155969.31;1641091;87;21290;-74
2021/01/12 02:40:10;;;;;;;14.43;7.35;;;;;;;18.34;36.38;155945.56;1622625;87;21358;-74
2021/01/12 02:42:45;;;;;;;17.95;8.63;;;;;;;18.13;36.31;155891.39;1638812;86;21235;-74
2021/01/12 02:45:19;;;;;;;17.80;8.70;;;;;;;18.12;36.08;155888.75;1633871;87;21187;-74
2021/01/12 02:47:51;;;;;;;16.17;7.92;;;;;;;18.16;36.10;155898.03;1645640;86;21203;-75
2021/01/12 02:50:24;;;;;;;15.55;7.50;;;;;;;18.33;36.02;155942.92;1645841;86;21350;-74
2021/01/12 02:52:56;;;;;;;17.57;7.90;;;;;;;18.31;35.92;155937.64;1650196;86;21395;-74
2021/01/12 02:55:28;;;;;;;16.82;8.20;;;;;;;18.31;36.15;155937.64;1657311;85;21348;-74
2021/01/12 02:58:01;;;;;;;13.93;7.92;;;;;;;18.37;36.07;155954.80;1635850;87;21323;-74
2021/01/12 03:00:34;;;;;;;14.83;7.08;;;;;;;18.54;35.87;155998.36;1649936;85;21204;-74
2021/01/12 03:03:07;;;;;;;12.05;6.35;;;;;;;18.41;35.58;155964.03;1631620;87;21377;-74
2021/01/12 03:05:39;;;;;;;16.00;8.00;;;;;;;18.45;35.31;155974.61;1621016;88;21848;-73
2021/01/12 03:08:12;;;;;;;13.25;6.90;;;;;;;18.20;35.50;155908.55;1639056;87;21361;-73
2021/01/12 03:10:44;;;;;;;18.10;7.85;;;;;;;18.42;35.25;155968.03;1617378;87;21357;-74
2021/01/12 03:13:16;;;;;;;16.73;8.05;;;;;;;18.43;35.09;155969.31;1625682;87;21740;-74
2021/01/12 03:15:49;;;;;;;15.43;7.03;;;;;;;18.22;35.25;155915.25;1623163;88;21231;-73
2021/01/12 03:18:21;;;;;;;13.72;7.10;;;;;;;18.20;35.35;155909.91;1616403;88;21201;-74
2021/01/12 03:20:55;;;;;;;13.30;6.35;;;;;;;18.23;35.32;155917.83;1583555;90;21221;-73
2021/01/12 03:23:27;;;;;;;14.65;6.85;;;;;;;18.24;35.12;155920.48;1588615;88;21237;-74
2021/01/12 03:26:01;;;;;;;11.95;6.47;;;;;;;18.27;35.26;155927.11;1633683;87;21211;-73
2021/01/12 03:28:34;;;;;;;13.50;7.15;;;;;;;18.30;35.00;155936.34;1621211;87;21353;-73
2021/01/12 03:31:06;;;;;;;14.65;7.78;;;;;;;18.32;34.94;155940.28;1627359;87;21295;-74
2021/01/12 03:33:39;;;;;;;15.03;7.92;;;;;;;18.36;35.10;155950.86;1637217;87;21246;-74
2021/01/12 03:36:12;;;;;;;17.60;9.05;;;;;;;18.62;35.10;156020.81;1670271;85;21262;-74
2021/01/12 03:38:44;;;;;;;18.07;9.30;;;;;;;18.75;34.74;156053.84;1623863;87;21223;-73
2021/01/12 03:41:16;;;;;;;17.55;8.75;;;;;;;18.77;34.60;156059.08;1626603;88;21369;-74
2021/01/12 03:43:49;;;;;;;17.92;9.03;;;;;;;18.60;34.76;156014.22;1654700;86;21396;-74
2021/01/12 03:46:21;;;;;;;20.95;9.53;;;;;;;18.53;35.13;155995.70;1623402;87;21358;-74
2021/01/12 03:48:54;;;;;;;23.18;9.20;;;;;;;19.25;34.53;156187.27;1670300;85;21271;-74
2021/01/12 03:51:26;;;;;;;20.75;9.28;;;;;;;18.86;34.41;156082.89;1671744;85;21350;-74
2021/01/12 03:53:59;;;;;;;17.00;8.65;;;;;;;18.70;34.49;156040.63;1661783;85;21381;-74
2021/01/12 03:56:31;;;;;;;21.23;9.33;;;;;;;18.63;34.48;156023.45;1663883;85;21293;-73
2021/01/12 03:59:04;;;;;;;24.65;10.10;;;;;;;18.65;34.63;156027.39;1652777;85;21281;-74
2021/01/12 04:01:43;;;;;;;20.75;9.68;;;;;;;18.64;34.74;156026.09;1661320;85;21345;-73
2021/01/12 04:04:16;;;;;;;20.72;9.93;;;;;;;18.71;34.81;156044.56;1664139;86;21207;-74
2021/01/12 04:06:48;;;;;;;16.25;9.28;;;;;;;18.72;34.65;156047.20;1628772;87;21206;-73
2021/01/12 04:09:20;;;;;;;20.08;9.18;;;;;;;19.01;34.36;156122.47;1668038;85;21253;-74
2021/01/12 04:11:53;;;;;;;19.92;10.13;;;;;;;18.98;34.36;156114.58;1640784;87;21247;-74
2021/01/12 04:14:25;;;;;;;18.00;9.43;;;;;;;18.76;34.55;156057.78;1659524;86;21372;-74
2021/01/12 04:16:57;;;;;;;15.45;8.40;;;;;;;18.57;34.58;156006.28;1629241;87;21781;-74
2021/01/12 04:19:30;;;;;;;15.23;8.13;;;;;;;18.24;34.76;155920.48;1657060;86;21408;-74
2021/01/12 04:22:02;;;;;;;17.37;8.58;;;;;;;18.79;34.26;156064.38;1627008;88;21361;-73
2021/01/12 04:24:35;;;;;;;17.35;9.03;;;;;;;18.61;34.35;156018.16;1659876;85;21377;-74
2021/01/12 04:27:07;;;;;;;19.07;10.25;;;;;;;18.13;34.84;155890.09;1626864;87;21654;-74
2021/01/12 04:29:40;;;;;;;18.80;8.75;;;;;;;17.72;35.32;155780.59;1627044;87;21204;-73
2021/01/12 04:32:12;;;;;;;20.57;10.38;;;;;;;17.80;35.31;155801.67;1644375;87;21206;-73
2021/01/12 04:34:45;;;;;;;19.52;9.13;;;;;;;17.78;35.40;155797.73;1649208;85;21246;-73
2021/01/12 04:37:17;;;;;;;19.07;9.15;;;;;;;17.73;35.39;155784.53;1666564;85;21210;-73
2021/01/12 04:39:49;;;;;;;19.90;9.45;;;;;;;17.78;35.54;155796.39;1615420;87;21341;-74
2021/01/12 04:42:22;;;;;;;18.40;8.95;;;;;;;17.87;35.50;155821.47;1626895;88;21267;-74
2021/01/12 04:44:54;;;;;;;23.32;9.95;;;;;;;17.66;35.78;155766.08;1626815;88;21360;-73
2021/01/12 04:47:27;;;;;;;18.30;9.58;;;;;;;17.78;35.92;155797.73;1631527;87;21388;-74
2021/01/12 04:50:03;;;;;;;21.23;10.13;;;;;;;17.76;36.11;155792.45;1636463;87;21928;-74
2021/01/12 04:52:51;;;;;;;21.75;9.93;;;;;;;18.22;35.75;155915.25;1669301;85;21348;-74
2021/01/12 04:55:24;;;;;;;19.10;9.73;;;;;;;18.04;36.05;155866.36;1658422;86;21371;-74
2021/01/12 04:57:57;;;;;;;19.27;9.18;;;;;;;17.72;36.53;155781.87;1664274;85;21257;-74
2021/01/12 05:00:32;;;;;;;20.68;9.40;;;;;;;17.65;36.76;155763.44;1664972;85;21333;-74
2021/01/12 05:03:09;;;;;;;21.25;9.65;;;;;;;17.64;36.90;155759.50;1630472;88;21215;-74
2021/01/12 05:05:42;;;;;;;19.42;9.63;;;;;;;17.68;36.99;155771.36;1628931;88;21789;-74
2021/01/12 05:08:17;;;;;;;18.98;10.18;;;;;;;17.89;36.89;155826.75;1665087;85;21226;-74
2021/01/12 05:10:50;;;;;;;17.37;8.88;;;;;;;17.77;37.09;155795.09;1669798;85;21678;-74
2021/01/12 05:13:23;;;;;;;18.55;9.35;;;;;;;17.83;37.04;155809.61;1679990;85;21231;-74
2021/01/12 05:15:55;;;;;;;17.98;9.13;;;;;;;17.80;37.17;155803.02;1658451;85;21390;-74
2021/01/12 05:18:27;;;;;;;17.87;8.93;;;;;;;17.81;37.26;155805.67;1653863;86;21396;-72
2021/01/12 05:21:00;;;;;;;19.92;10.65;;;;;;;17.77;37.40;155793.75;1623563;88;21275;-66
2021/01/12 05:23:34;;;;;;;18.30;9.43;;;;;;;17.52;37.82;155729.13;1643844;85;21255;-67
2021/01/12 05:26:06;;;;;;;19.37;10.05;;;;;;;17.61;37.72;155751.56;1662739;85;21443;-66
2021/01/12 05:28:39;;;;;;;17.23;9.25;;;;;;;17.63;37.79;155758.16;1664668;85;21203;-67
2021/01/12 05:31:13;;;;;;;22.95;9.63;;;;;;;17.60;37.84;155748.92;1663707;86;21337;-67
2021/01/12 05:33:46;;;;;;;21.52;10.40;;;;;;;17.37;38.13;155688.25;1662371;85;21222;-67
2021/01/12 05:36:18;;;;;;;20.57;9.55;;;;;;;17.45;38.13;155709.34;1654704;86;21341;-67
2021/01/12 05:38:51;;;;;;;19.02;10.00;;;;;;;17.39;38.21;155693.55;1630434;87;21223;-67
2021/01/12 05:41:27;;;;;;;22.10;10.45;;;;;;;17.33;38.41;155679.03;1605797;88;21316;-67
2021/01/12 05:43:59;;;;;;;22.40;10.50;;;;;;;17.51;38.53;155726.48;1613729;89;21370;-67
2021/01/12 05:46:32;;;;;;;21.50;10.88;;;;;;;17.05;39.00;155603.83;1601850;89;21369;-67
2021/01/12 05:49:04;;;;;;;22.55;11.05;;;;;;;17.15;39.01;155628.84;1610893;89;21223;-67
2021/01/12 05:51:47;;;;;;;23.27;11.68;;;;;;;17.09;39.11;155613.05;1604333;88;21256;-67
2021/01/12 05:54:36;;;;;;;21.27;10.18;;;;;;;17.22;38.90;155648.62;1602142;89;21424;-68
2021/01/12 05:57:09;;;;;;;21.80;11.28;;;;;;;17.18;39.05;155636.77;1633629;87;21207;-69
2021/01/12 05:59:41;;;;;;;21.37;10.53;;;;;;;17.41;39.02;155700.13;1621902;88;21349;-66
2021/01/12 06:02:16;;;;;;;21.73;10.63;;;;;;;17.34;39.19;155680.33;1615969;88;21212;-67
2021/01/12 06:04:51;;;;;;;20.97;10.55;;;;;;;17.07;39.62;155609.06;1632365;87;21269;-67
2021/01/12 06:07:23;;;;;;;22.25;9.53;;;;;;;16.99;39.52;155586.69;1603803;87;21321;-75
2021/01/12 06:09:56;;;;;;;23.32;11.63;;;;;;;17.31;39.19;155673.75;1626484;87;21267;-74
2021/01/12 06:12:28;;;;;;;22.58;10.72;;;;;;;17.41;39.05;155700.13;1661503;85;21381;-74
2021/01/12 06:15:01;;;;;;;23.30;11.15;;;;;;;17.24;39.10;155655.22;1665172;85;21199;-74
2021/01/12 06:17:35;;;;;;;22.93;11.28;;;;;;;17.23;39.07;155652.62;1672656;85;21230;-78
2021/01/12 06:20:07;;;;;;;22.13;11.73;;;;;;;17.93;38.50;155835.98;1653781;85;21211;-70
2021/01/12 06:22:45;;;;;;;23.02;9.65;;;;;;;17.61;38.66;155752.86;1653927;85;21237;-76
2021/01/12 06:25:18;;;;;;;21.12;10.08;;;;;;;17.23;39.04;155652.62;1654919;85;21222;-70
2021/01/12 06:27:50;;;;;;;20.32;10.40;;;;;;;17.37;38.94;155689.55;1654921;85;21293;-71
2021/01/12 06:30:24;;;;;;;19.57;9.93;;;;;;;17.22;39.01;155648.62;1653764;85;21408;-70
2021/01/12 06:32:58;;;;;;;19.98;10.28;;;;;;;17.39;38.83;155694.84;1653445;85;21677;-69
2021/01/12 06:35:30;;;;;;;19.45;9.90;;;;;;;17.34;38.90;155681.69;1652690;85;21254;-74
2021/01/12 06:38:06;;;;;;;19.98;9.85;;;;;;;17.43;38.83;155705.41;1652602;85;21285;-72
2021/01/12 06:40:39;;;;;;;22.02;10.20;;;;;;;17.40;38.88;155696.19;1652917;85;21297;-67
2021/01/12 06:43:11;;;;;;;19.57;10.13;;;;;;;17.43;38.90;155704.06;1652519;85;21820;-67
2021/01/12 06:45:47;;;;;;;18.50;9.88;;;;;;;17.52;38.87;155729.13;1653944;85;22647;-67
2021/01/12 06:48:20;;;;;;;17.30;9.10;;;;;;;17.17;39.34;155634.13;1652254;86;21721;-67
2021/01/12 06:50:52;;;;;;;21.10;10.28;;;;;;;17.25;39.26;155657.84;1652999;85;21214;-67
2021/01/12 06:53:25;;;;;;;21.37;10.40;;;;;;;17.50;38.91;155723.84;1630981;86;21210;-69
2021/01/12 06:56:08;;;;;;;22.75;11.00;;;;;;;17.49;38.91;155721.20;1632023;85;21219;-68
2021/01/12 06:58:46;;;;;;;21.37;10.93;;;;;;;17.37;39.08;155689.55;1654044;85;21249;-69
2021/01/12 07:01:22;;;;;;;21.48;10.65;;;;;;;17.36;39.04;155685.62;1654090;85;21234;-69
2021/01/12 07:03:55;;;;;;;22.05;10.88;;;;;;;17.07;39.41;155607.77;1653567;85;21224;-67
2021/01/12 07:06:30;;;;;;;20.97;11.43;;;;;;;17.02;39.51;155594.56;1654226;85;21845;-69
2021/01/12 07:09:05;;;;;;;19.23;10.23;;;;;;;16.99;39.49;155587.98;1630733;85;22101;-68
2021/01/12 07:11:37;;;;;;;19.77;10.20;;;;;;;17.04;39.42;155599.84;1624374;87;21392;-75
2021/01/12 07:14:10;;;;;;;21.02;9.98;;;;;;;16.96;39.55;155580.06;1653632;86;21208;-73
2021/01/12 07:16:46;;;;;;;19.00;10.08;;;;;;;16.83;39.49;155544.48;1653139;86;21396;-73
2021/01/12 07:19:22;;;;;;;21.05;9.75;;;;;;;16.81;39.56;155539.20;1651076;86;21262;-69
2021/01/12 07:21:58;;;;;;;19.52;10.05;;;;;;;16.72;39.61;155515.48;1630691;87;21301;-68
2021/01/12 07:24:31;;;;;;;20.00;9.75;;;;;;;16.92;39.62;155569.55;1651055;85;21905;-67
2021/01/12 07:27:06;;;;;;;19.60;8.88;;;;;;;16.91;39.47;155565.56;1599289;87;21183;-66
2021/01/12 07:29:55;;;;;;;22.55;11.50;;;;;;;16.75;39.44;155523.41;1651197;85;21222;-64
2021/01/12 07:32:34;;;;;;;23.40;10.65;;;;;;;16.83;39.42;155544.48;1648837;85;21282;-73
2021/01/12 07:35:10;;;;;;;25.32;10.68;;;;;;;16.98;39.36;155584.05;1649389;86;21253;-72
2021/01/12 07:37:43;;;;;;;18.12;9.63;;;;;;;17.00;39.34;155589.33;1648580;85;21361;-77
2021/01/12 07:40:16;;;;;;;17.95;9.15;;;;;;;17.08;39.09;155610.41;1648278;85;21221;-66
2021/01/12 07:42:53;;;;;;;18.52;9.10;;;;;;;16.89;38.72;155560.33;1649397;85;21213;-66
2021/01/12 07:45:30;;;;;;;16.67;9.23;;;;;;;16.85;38.71;155549.77;1648343;85;21310;-69
2021/01/12 07:48:03;;;;;;;15.50;8.10;;;;;;;16.66;38.61;155501.00;1649465;85;21310;-69
2021/01/12 07:50:36;;;;;;;17.85;8.53;;;;;;;16.81;38.51;155540.55;1649701;85;21399;-69
2021/01/12 07:53:09;;;;;;;20.15;8.88;;;;;;;16.82;38.24;155543.19;1649130;85;21198;-68
2021/01/12 07:55:46;;;;;;;17.40;9.13;;;;;;;16.78;38.29;155531.33;1648564;85;21286;-69
2021/01/12 07:58:22;;;;;;;18.27;9.58;;;;;;;16.97;38.51;155582.70;1647428;85;21923;-70
2021/01/12 08:00:53;;;;;;;20.48;10.35;;;;;;;17.21;38.48;155645.98;1649490;85;21266;-73
2021/01/12 08:03:28;;;;;;;19.73;10.15;;;;;;;17.42;38.34;155702.77;1648423;85;21262;-69
2021/01/12 08:06:01;;;;;;;24.95;10.60;;;;;;;17.51;38.18;155725.19;1649484;86;21266;-69
2021/01/12 08:08:33;;;;;;;20.15;10.63;;;;;;;17.44;38.10;155708.05;1649011;85;21294;-70
2021/01/12 08:11:06;;;;;;;21.50;10.15;;;;;;;17.37;38.13;155688.25;1649117;85;21244;-67
2021/01/12 08:13:38;;;;;;;19.23;10.15;;;;;;;17.36;38.11;155686.91;1628890;85;21559;-67
2021/01/12 08:16:10;;;;;;;18.20;8.58;;;;;;;17.34;38.01;155680.33;1649505;85;21301;-66
2021/01/12 08:18:43;;;;;;;18.75;8.88;;;;;;;17.18;37.97;155636.77;1628419;85;21241;-67
2021/01/12 08:21:16;;;;;;;16.48;8.28;;;;;;;16.70;38.61;155511.56;1648524;85;21972;-66
2021/01/12 08:23:48;;;;;;;17.10;8.45;;;;;;;17.01;38.14;155591.97;1648647;85;21199;-66
2021/01/12 08:26:20;;;;;;;18.05;8.33;;;;;;;17.00;38.10;155589.33;1648827;85;21258;-65
2021/01/12 08:28:53;;;;;;;16.35;8.30;;;;;;;16.93;37.93;155570.84;1627753;86;21223;-66
2021/01/12 08:31:26;;;;;;;15.65;8.43;;;;;;;16.92;38.03;155568.20;1627937;86;21218;-68
2021/01/12 08:33:59;;;;;;;19.00;7.92;;;;;;;16.84;38.17;155547.12;1627235;87;21253;-70
2021/01/12 08:36:31;;;;;;;15.18;8.75;;;;;;;16.90;38.14;155562.92;1617946;88;22243;-65
2021/01/12 08:39:04;;;;;;;17.23;9.08;;;;;;;16.82;37.92;155543.19;1600956;88;21385;-66
2021/01/12 08:41:42;;;;;;;16.95;8.80;;;;;;;17.00;37.82;155589.33;1624938;88;21218;-65
2021/01/12 08:44:15;;;;;;;19.25;8.73;;;;;;;16.64;38.04;155495.72;1609733;88;21277;-65
2021/01/12 08:46:47;;;;;;;14.93;7.85;;;;;;;16.82;37.99;155541.84;1600801;89;21230;-71
2021/01/12 08:49:31;;;;;;;16.45;7.95;;;;;;;16.88;37.96;155557.69;1602255;89;21372;-72
2021/01/12 08:52:05;;;;;;;15.10;7.47;;;;;;;16.68;37.91;155504.92;1602268;88;21740;-72
2021/01/12 08:54:37;;;;;;;16.73;8.15;;;;;;;16.69;37.89;155508.92;1628040;88;21732;-72
2021/01/12 08:57:09;;;;;;;17.07;8.68;;;;;;;16.51;37.94;155461.44;1621763;88;21384;-72
2021/01/12 08:59:41;;;;;;;16.75;7.72;;;;;;;16.65;37.83;155498.34;1557669;89;21266;-72
2021/01/12 09:02:20;;;;;;;16.23;8.23;;;;;;;16.60;37.93;155483.86;1602469;88;21345;-72
2021/01/12 09:05:02;;;;;;;18.20;8.58;;;;;;;16.93;37.64;155570.84;1627492;88;21249;-74
2021/01/12 09:07:35;;;;;;;15.53;8.05;;;;;;;16.94;37.72;155573.48;1609116;88;21374;-73
2021/01/12 09:10:09;;;;;;;17.32;8.58;;;;;;;16.69;38.01;155507.56;1627524;87;21234;-74
2021/01/12 09:12:42;;;;;;;18.92;8.73;;;;;;;16.79;37.89;155533.92;1626696;87;21408;-74
2021/01/12 09:15:14;;;;;;;18.02;9.28;;;;;;;16.95;37.66;155576.13;1604092;88;21564;-73
2021/01/12 09:17:47;;;;;;;17.60;7.95;;;;;;;17.24;37.42;155655.22;1600836;89;21368;-70
2021/01/12 09:20:26;;;;;;;19.62;9.93;;;;;;;16.93;37.11;155572.19;1600915;89;21231;-71
2021/01/12 09:23:11;;;;;;;17.42;8.20;;;;;;;17.01;36.96;155593.27;1603176;88;21352;-72
2021/01/12 09:25:53;;;;;;;21.62;8.48;;;;;;;16.63;37.15;155491.78;1600772;89;21282;-71
2021/01/12 09:28:41;;;;;;;19.80;8.55;;;;;;;16.44;37.29;155441.67;1600949;88;21353;-75
2021/01/12 09:31:14;;;;;;;19.95;9.53;;;;;;;16.75;37.03;155524.70;1627364;87;21251;-68
2021/01/12 09:33:51;;;;;;;17.35;8.38;;;;;;;16.92;36.74;155569.55;1635041;87;21302;-69
2021/01/12 09:36:25;;;;;;;14.73;7.47;;;;;;;16.65;37.16;155497.06;1597277;89;21267;-66
2021/01/12 09:38:57;;;;;;;18.00;9.35;;;;;;;16.97;36.62;155581.41;1598132;89;21223;-66
2021/01/12 09:41:30;;;;;;;16.48;8.70;;;;;;;16.95;36.56;155576.13;1624262;87;21417;-66
2021/01/12 09:44:02;;;;;;;23.10;9.60;;;;;;;16.69;36.94;155507.56;1590354;89;21219;-66
2021/01/12 09:46:34;;;;;;;18.67;8.73;;;;;;;17.11;36.48;155618.33;1604568;88;21396;-67
2021/01/12 09:49:07;;;;;;;19.10;8.88;;;;;;;17.14;36.25;155627.55;1577450;89;21291;-67
2021/01/12 09:51:39;;;;;;;18.15;8.93;;;;;;;17.05;36.57;155603.83;1585430;90;21332;-66
2021/01/12 09:54:13;;;;;;;19.00;8.85;;;;;;;17.44;36.20;155708.05;1580080;90;21239;-72
2021/01/12 09:56:45;;;;;;;19.60;9.38;;;;;;;16.89;36.61;155560.33;1593489;90;21203;-67
2021/01/12 09:59:18;;;;;;;18.98;9.15;;;;;;;17.26;36.70;155660.50;1574825;90;21267;-67
2021/01/12 10:01:57;;;;;;;17.10;7.72;;;;;;;17.42;36.36;155702.77;1604092;88;21810;-67
2021/01/12 10:04:30;;;;;;;18.92;9.18;;;;;;;17.07;36.39;155609.06;1609643;88;21428;-68
2021/01/12 10:07:02;;;;;;;19.90;9.35;;;;;;;17.52;36.24;155727.84;1605888;89;21376;-67
2021/01/12 10:09:37;;;;;;;16.75;7.95;;;;;;;17.49;36.24;155719.91;1605589;89;21237;-67
2021/01/12 10:12:10;;;;;;;20.00;8.45;;;;;;;17.64;35.81;155759.50;1644033;86;21255;-67
2021/01/12 10:14:42;;;;;;;19.07;8.50;;;;;;;17.85;35.62;155816.19;1640179;87;21267;-68
2021/01/12 10:17:14;;;;;;;16.57;8.50;;;;;;;17.86;35.33;155818.83;1636833;88;21877;-67
2021/01/12 10:19:47;;;;;;;13.80;7.37;;;;;;;17.92;35.17;155833.34;1629501;88;21385;-67
2021/01/12 10:22:19;;;;;;;16.40;7.72;;;;;;;17.89;34.99;155826.75;1617758;88;21346;-68
2021/01/12 10:24:52;;;;;;;17.35;8.48;;;;;;;17.58;35.12;155744.98;1618497;88;21369;-67
2021/01/12 10:27:25;;;;;;;30.17;8.23;;;;;;;17.49;35.23;155719.91;1575254;90;21310;-67
2021/01/12 10:29:57;;;;;;;16.40;7.97;;;;;;;17.53;35.16;155731.78;1593334;89;21310;-67
2021/01/12 10:32:31;;;;;;;20.55;9.13;;;;;;;17.39;35.29;155693.55;1581706;89;21243;-67
2021/01/12 10:35:05;;;;;;;18.50;8.70;;;;;;;17.63;35.22;155758.16;1589776;88;21208;-67
2021/01/12 10:37:38;;;;;;;16.80;8.33;;;;;;;17.61;35.26;155751.56;1669796;85;21171;-68
2021/01/12 10:40:13;;;;;;;16.27;7.65;;;;;;;17.71;35.20;155779.23;1659102;85;21210;-67
2021/01/12 10:42:46;;;;;;;14.83;7.22;;;;;;;17.57;35.17;155742.34;1674916;85;21218;-67
2021/01/12 10:45:19;;;;;;;16.62;8.20;;;;;;;17.63;34.99;155758.16;1671489;85;21424;-67
2021/01/12 10:47:52;;;;;;;14.28;6.80;;;;;;;17.04;35.42;155601.19;1660939;85;21334;-68
2021/01/12 10:50:25;;;;;;;14.60;7.37;;;;;;;17.31;35.28;155672.41;1649446;87;21227;-67
2021/01/12 10:52:57;;;;;;;16.90;6.80;;;;;;;17.71;34.99;155779.23;1627350;88;21416;-67
2021/01/12 10:55:29;;;;;;;15.43;7.50;;;;;;;17.44;34.81;155708.05;1649726;85;21198;-67
2021/01/12 10:58:02;;;;;;;17.23;7.83;;;;;;;17.72;34.90;155780.59;1671204;86;21210;-67
2021/01/12 11:00:35;;;;;;;14.40;6.83;;;;;;;17.48;34.97;155717.27;1671326;85;21231;-68
2021/01/12 11:03:08;;;;;;;16.40;7.08;;;;;;;17.51;35.04;155726.48;1671228;85;21239;-67
2021/01/12 11:05:42;;;;;;;24.47;7.47;;;;;;;17.65;34.96;155763.44;1671622;86;21715;-67
2021/01/12 11:08:16;;;;;;;17.85;8.03;;;;;;;17.57;34.82;155742.34;1673195;85;21753;-68
2021/01/12 11:10:48;;;;;;;17.90;7.40;;;;;;;17.34;34.95;155680.33;1662284;85;21222;-67
2021/01/12 11:13:21;;;;;;;20.23;7.05;;;;;;;17.31;35.02;155672.41;1672485;85;21311;-67
2021/01/12 11:15:58;;;;;;;15.10;7.20;;;;;;;16.99;35.29;155586.69;1673737;85;21271;-67
2021/01/12 11:18:31;;;;;;;19.25;7.62;;;;;;;16.81;35.49;155540.55;1677541;85;21215;-67
2021/01/12 11:21:04;;;;;;;12.47;6.03;;;;;;;16.85;35.63;155549.77;1674586;85;21311;-67
2021/01/12 11:23:36;;;;;;;17.60;7.05;;;;;;;16.67;35.64;155502.28;1672639;85;21756;-67
2021/01/12 11:26:11;;;;;;;17.65;7.20;;;;;;;17.06;35.54;155606.47;1677175;85;21949;-67
2021/01/12 11:28:43;;;;;;;14.93;6.58;;;;;;;16.98;35.51;155584.05;1671741;85;21884;-67
2021/01/12 11:31:20;;;;;;;17.25;6.80;;;;;;;16.95;35.50;155576.13;1671484;86;21357;-67
2021/01/12 11:33:53;;;;;;;18.42;7.42;;;;;;;16.74;35.77;155520.77;1672217;85;21381;-67
2021/01/12 11:36:27;;;;;;;17.27;6.92;;;;;;;16.82;35.66;155543.19;1669325;86;21206;-67
2021/01/12 11:39:00;;;;;;;23.15;7.90;;;;;;;16.51;35.86;155460.16;1651149;86;21231;-67
2021/01/12 11:41:32;;;;;;;14.98;6.50;;;;;;;16.38;36.03;155427.17;1669307;86;21247;-67
2021/01/12 11:44:04;;;;;;;15.72;7.22;;;;;;;16.78;35.81;155532.62;1665910;86;21412;-68